Time;durP1;ratioP1;P1;durP2;ratioP2;P2;SDS_P1;SDS_P2;PMS_P1;PMS_P2;Temp;Humidity;BMP_temperature;BMP_pressure;BME280_temperature;BME280_humidity;BME280_pressure;Samples;Min_cycle;Max_cycle;Signal;HPM_P1;HPM_P2
2023/05/10 00:04:19;;;;;;;;;;;;;;;12.39;100.00;95128.44;10440543;28;1923;-68
2023/05/10 00:09:22;;;;;;;;;;;;;;;12.37;100.00;95127.94;10439275;28;1980;-69
2023/05/10 00:14:24;;;;;;;;;;;;;;;12.37;100.00;95122.56;10444599;28;2065;-73
2023/05/10 00:19:27;;;;;;;;;;;;;;;12.34;100.00;95125.03;10439019;28;1973;-69
2023/05/10 00:24:29;;;;;;;;;;;;;;;12.32;100.00;95119.97;10441531;28;1979;-70
2023/05/10 00:29:31;;;;;;;;;;;;;;;12.30;100.00;95122.16;10438919;28;1976;-71
2023/05/10 00:34:34;;;;;;;;;;;;;;;12.28;100.00;95112.75;10439463;28;2056;-71
2023/05/10 00:39:36;;;;;;;;;;;;;;;12.28;100.00;95115.47;10427118;28;2045;-68
2023/05/10 00:44:39;;;;;;;;;;;;;;;12.27;100.00;95109.28;10444349;28;1968;-67
2023/05/10 00:49:41;;;;;;;;;;;;;;;12.21;100.00;95102.38;10443948;28;1922;-68
2023/05/10 00:54:43;;;;;;;;;;;;;;;12.17;100.00;95107.59;10429092;28;1915;-69
2023/05/10 00:59:46;;;;;;;;;;;;;;;12.15;100.00;95104.41;10441163;28;4981;-69
2023/05/10 01:04:48;;;;;;;;;;;;;;;12.16;100.00;95105.22;10447168;28;1921;-69
2023/05/10 01:09:50;;;;;;;;;;;;;;;12.16;100.00;95103.31;10438898;28;1964;-70
2023/05/10 01:14:53;;;;;;;;;;;;;;;12.06;100.00;95098.09;10449688;28;1910;-69
2023/05/10 01:19:55;;;;;;;;;;;;;;;12.11;100.00;95105.31;10450398;28;1959;-70
2023/05/10 01:24:57;;;;;;;;;;;;;;;12.07;100.00;95096.22;10444310;28;2097;-69
2023/05/10 01:30:00;;;;;;;;;;;;;;;12.07;100.00;95101.59;10441712;28;2097;-69
2023/05/10 01:35:16;;;;;;;;;;;;;;;12.01;100.00;95092.81;10442384;28;2207;-70
2023/05/10 01:40:19;;;;;;;;;;;;;;;11.99;100.00;95100.41;10443104;28;1945;-70
2023/05/10 01:45:22;;;;;;;;;;;;;;;11.98;100.00;95098.81;10437723;28;2232;-72
2023/05/10 01:50:26;;;;;;;;;;;;;;;11.96;100.00;95095.63;10440019;28;2000;-71
2023/05/10 01:55:28;;;;;;;;;;;;;;;11.93;100.00;95101.59;10441623;28;5087;-72
2023/05/10 02:00:32;;;;;;;;;;;;;;;11.94;100.00;95102.38;10438745;28;2011;-72
2023/05/10 02:05:34;;;;;;;;;;;;;;;11.98;100.00;95100.72;10442624;28;1986;-71
2023/05/10 02:10:36;;;;;;;;;;;;;;;11.96;100.00;95094.78;10438494;28;2058;-71
2023/05/10 02:15:39;;;;;;;;;;;;;;;11.92;100.00;95099.19;10442520;28;1965;-71
2023/05/10 02:20:41;;;;;;;;;;;;;;;11.92;100.00;95099.19;10437482;28;1906;-71
2023/05/10 02:25:43;;;;;;;;;;;;;;;11.91;100.00;95095.72;10437686;28;2080;-72
2023/05/10 02:30:46;;;;;;;;;;;;;;;11.93;100.00;95101.59;10440410;28;1973;-71
2023/05/10 02:35:48;;;;;;;;;;;;;;;11.89;100.00;95104.06;10443605;28;1898;-71
2023/05/10 02:40:51;;;;;;;;;;;;;;;11.89;100.00;95096.00;10447347;28;1881;-71
2023/05/10 02:45:54;;;;;;;;;;;;;;;11.84;100.00;95096.09;10446253;28;1969;-70
2023/05/10 02:50:56;;;;;;;;;;;;;;;11.82;100.00;95095.59;10448746;28;2005;-69
2023/05/10 02:55:58;;;;;;;;;;;;;;;11.83;100.00;95102.59;10447147;28;4981;-70
2023/05/10 03:01:00;;;;;;;;;;;;;;;11.82;100.00;95106.34;10450271;28;1914;-70
2023/05/10 03:06:03;;;;;;;;;;;;;;;11.80;100.00;95105.84;10448650;28;1974;-70
2023/05/10 03:11:06;;;;;;;;;;;;;;;11.81;100.00;95104.75;10447356;28;1895;-70
2023/05/10 03:16:08;;;;;;;;;;;;;;;11.82;100.00;95109.06;10446923;28;1883;-69
2023/05/10 03:21:12;;;;;;;;;;;;;;;11.79;100.00;95117.72;10445162;28;1943;-70
2023/05/10 03:26:14;;;;;;;;;;;;;;;11.80;100.00;95111.22;10447292;28;2069;-70
2023/05/10 03:31:16;;;;;;;;;;;;;;;11.82;100.00;95121.72;10441566;28;1965;-69
2023/05/10 03:36:19;;;;;;;;;;;;;;;11.86;100.00;95128.91;10441425;28;1976;-71
2023/05/10 03:41:21;;;;;;;;;;;;;;;11.89;100.00;95122.13;10442246;28;1997;-72
2023/05/10 03:46:23;;;;;;;;;;;;;;;11.83;100.00;95126.84;10451473;28;1902;-69
2023/05/10 03:51:27;;;;;;;;;;;;;;;11.85;100.00;95132.72;10447903;28;1985;-69
2023/05/10 03:56:30;;;;;;;;;;;;;;;11.87;100.00;95133.19;10446324;28;4996;-69
2023/05/10 04:01:32;;;;;;;;;;;;;;;11.86;100.00;95139.69;10443593;28;2004;-70
2023/05/10 04:06:35;;;;;;;;;;;;;;;11.89;100.00;95141.78;10439169;28;1980;-68
2023/05/10 04:11:37;;;;;;;;;;;;;;;11.88;100.00;95140.19;10441321;28;1964;-69
2023/05/10 04:16:39;;;;;;;;;;;;;;;11.92;100.00;95142.28;10440523;28;2243;-70
2023/05/10 04:21:42;;;;;;;;;;;;;;;11.98;100.00;95146.50;10442176;28;2140;-73
2023/05/10 04:26:45;;;;;;;;;;;;;;;11.97;100.00;95151.09;10443150;28;1966;-73
2023/05/10 04:31:48;;;;;;;;;;;;;;;11.99;100.00;95145.41;10441641;28;1921;-77
2023/05/10 04:36:50;;;;;;;;;;;;;;;12.08;100.00;95154.38;10438387;28;1911;-70
2023/05/10 04:41:53;;;;;;;;;;;;;;;12.03;100.00;95155.28;10435584;28;1950;-70
2023/05/10 04:46:55;;;;;;;;;;;;;;;12.01;100.00;95153.97;10432874;28;1984;-70
2023/05/10 04:51:57;;;;;;;;;;;;;;;11.89;100.00;95155.25;10443085;28;1972;-70
2023/05/10 04:57:00;;;;;;;;;;;;;;;11.93;100.00;95154.66;10437708;28;5028;-70
2023/05/10 05:02:03;;;;;;;;;;;;;;;11.93;100.00;95162.75;10439971;28;1949;-70
2023/05/10 05:07:05;;;;;;;;;;;;;;;11.68;100.00;95164.75;10422400;28;1973;-70
2023/05/10 05:12:13;;;;;;;;;;;;;;;11.60;100.00;95174.31;10439245;28;1945;-70
2023/05/10 05:17:15;;;;;;;;;;;;;;;11.44;100.00;95186.38;10439729;28;2158;-70
2023/05/10 05:22:19;;;;;;;;;;;;;;;11.41;100.00;95199.66;10441061;28;2071;-71
2023/05/10 05:27:23;;;;;;;;;;;;;;;11.21;100.00;95204.25;10437376;28;2067;-70
2023/05/10 05:32:26;;;;;;;;;;;;;;;11.08;100.00;95205.75;10438460;28;1973;-70
2023/05/10 05:37:28;;;;;;;;;;;;;;;10.90;100.00;95213.81;10437021;28;1933;-71
2023/05/10 05:42:31;;;;;;;;;;;;;;;10.97;100.00;95222.31;10440361;28;1981;-69
2023/05/10 05:47:34;;;;;;;;;;;;;;;10.93;100.00;95218.59;10438312;28;1945;-71
2023/05/10 05:52:36;;;;;;;;;;;;;;;11.14;100.00;95219.94;10437001;28;2024;-69
2023/05/10 05:57:39;;;;;;;;;;;;;;;11.21;100.00;95224.97;10440647;28;5074;-71
2023/05/10 06:02:41;;;;;;;;;;;;;;;11.34;100.00;95230.41;10437602;28;1905;-71
2023/05/10 06:07:43;;;;;;;;;;;;;;;11.59;100.00;95236.50;10440352;28;1958;-71
2023/05/10 06:12:46;;;;;;;;;;;;;;;11.75;100.00;95243.25;10434961;28;2112;-70
2023/05/10 06:17:49;;;;;;;;;;;;;;;11.85;100.00;95250.41;10435460;28;2063;-70
2023/05/10 06:22:51;;;;;;;;;;;;;;;11.88;100.00;95253.28;10446155;28;2020;-71
2023/05/10 06:27:57;;;;;;;;;;;;;;;12.15;100.00;95259.84;10448347;28;1910;-72
2023/05/10 06:32:59;;;;;;;;;;;;;;;12.67;100.00;95260.56;10445633;28;1914;-77
2023/05/10 06:38:02;;;;;;;;;;;;;;;12.79;100.00;95260.84;10451538;28;1937;-77
2023/05/10 06:43:04;;;;;;;;;;;;;;;13.20;100.00;95262.72;10453593;28;1973;-77
2023/05/10 06:48:06;;;;;;;;;;;;;;;13.24;100.00;95258.34;10447577;28;1949;-73
2023/05/10 06:53:11;;;;;;;;;;;;;;;13.47;100.00;95256.50;10430949;28;1981;-71
2023/05/10 06:58:14;;;;;;;;;;;;;;;13.31;100.00;95256.03;10433271;28;5057;-72
2023/05/10 07:03:16;;;;;;;;;;;;;;;13.45;100.00;95251.41;10431025;28;1934;-71
2023/05/10 07:08:19;;;;;;;;;;;;;;;13.64;100.00;95266.66;10435872;28;2059;-72
2023/05/10 07:13:21;;;;;;;;;;;;;;;13.92;100.00;95256.53;10435857;28;1923;-71
2023/05/10 07:18:24;;;;;;;;;;;;;;;14.02;100.00;95262.50;10430277;28;1874;-72
2023/05/10 07:23:27;;;;;;;;;;;;;;;13.97;100.00;95270.72;10425721;28;1906;-73
2023/05/10 07:28:30;;;;;;;;;;;;;;;14.24;100.00;95263.59;10432548;28;1934;-74
2023/05/10 07:33:32;;;;;;;;;;;;;;;14.13;100.00;95263.06;10429878;28;1959;-73
2023/05/10 07:38:34;;;;;;;;;;;;;;;14.31;100.00;95251.25;10427563;28;1926;-72
2023/05/10 07:43:37;;;;;;;;;;;;;;;14.80;100.00;95240.50;10430354;28;1889;-73
2023/05/10 07:48:40;;;;;;;;;;;;;;;14.43;100.00;95249.84;10424951;28;1996;-72
2023/05/10 07:53:43;;;;;;;;;;;;;;;14.03;100.00;95266.00;10423655;28;1909;-72
2023/05/10 07:58:45;;;;;;;;;;;;;;;14.68;100.00;95261.94;10425920;28;5055;-72
2023/05/10 08:03:47;;;;;;;;;;;;;;;15.72;100.00;95244.06;10428855;28;2027;-72
2023/05/10 08:08:51;;;;;;;;;;;;;;;15.39;100.00;95251.78;10432325;28;1986;-71
2023/05/10 08:13:53;;;;;;;;;;;;;;;16.00;100.00;95244.53;10431537;28;1934;-71
2023/05/10 08:18:56;;;;;;;;;;;;;;;16.52;100.00;95257.19;10431762;28;1882;-70
2023/05/10 08:23:58;;;;;;;;;;;;;;;16.34;100.00;95257.22;10431736;28;2076;-71
2023/05/10 08:29:00;;;;;;;;;;;;;;;16.47;100.00;95247.28;10433029;28;1971;-72
2023/05/10 08:34:03;;;;;;;;;;;;;;;16.78;100.00;95248.97;10433039;28;1887;-74
2023/05/10 08:39:05;;;;;;;;;;;;;;;15.76;100.00;95255.84;10428214;28;1954;-74
2023/05/10 08:44:20;;;;;;;;;;;;;;;14.82;100.00;95262.63;10431290;28;1921;-73
2023/05/10 08:49:22;;;;;;;;;;;;;;;14.54;100.00;95264.75;10416443;28;1990;-72
2023/05/10 08:54:25;;;;;;;;;;;;;;;15.52;100.00;95263.59;10435033;28;1843;-73
2023/05/10 08:59:27;;;;;;;;;;;;;;;15.35;100.00;95259.78;10431670;28;5325;-72
2023/05/10 09:04:30;;;;;;;;;;;;;;;15.37;100.00;95262.16;10433142;28;1976;-74
2023/05/10 09:09:32;;;;;;;;;;;;;;;15.29;100.00;95261.03;10429509;28;2005;-73
2023/05/10 09:14:34;;;;;;;;;;;;;;;16.00;100.00;95251.84;10428638;28;1901;-72
2023/05/10 09:19:37;;;;;;;;;;;;;;;16.95;100.00;95248.91;10429218;28;1799;-72
2023/05/10 09:24:44;;;;;;;;;;;;;;;16.70;100.00;95253.31;10429803;28;1971;-73
2023/05/10 09:29:47;;;;;;;;;;;;;;;16.45;100.00;95250.34;10425162;28;1996;-72
2023/05/10 09:34:50;;;;;;;;;;;;;;;16.78;100.00;95240.84;10429792;28;2008;-73
2023/05/10 09:39:52;;;;;;;;;;;;;;;17.17;100.00;95245.91;10430265;28;1976;-73
2023/05/10 09:44:54;;;;;;;;;;;;;;;16.49;100.00;95242.34;10432088;28;2042;-76
2023/05/10 09:50:02;;;;;;;;;;;;;;;16.55;100.00;95241.06;10428060;28;1946;-76
2023/05/10 09:55:05;;;;;;;;;;;;;;;18.15;100.00;95238.34;10430181;28;2008;-74
2023/05/10 10:00:08;;;;;;;;;;;;;;;17.57;100.00;95237.38;10417099;28;4996;-76
2023/05/10 10:05:11;;;;;;;;;;;;;;;17.71;100.00;95232.50;10430919;28;1914;-72
2023/05/10 10:10:13;;;;;;;;;;;;;;;17.73;100.00;95234.88;10419344;28;1957;-72
2023/05/10 10:15:15;;;;;;;;;;;;;;;18.23;100.00;95221.16;10426874;28;1964;-75
2023/05/10 10:20:18;;;;;;;;;;;;;;;17.82;100.00;95228.25;10424266;28;1988;-72
2023/05/10 10:25:21;;;;;;;;;;;;;;;17.36;100.00;95236.53;10426517;28;1993;-74
2023/05/10 10:30:24;;;;;;;;;;;;;;;17.48;100.00;95231.19;10429242;28;1980;-74
2023/05/10 10:35:28;;;;;;;;;;;;;;;18.40;100.00;95227.56;10425262;28;1978;-73
2023/05/10 10:40:30;;;;;;;;;;;;;;;19.60;100.00;95214.34;10422079;28;1926;-72
2023/05/10 10:45:36;;;;;;;;;;;;;;;19.80;100.00;95215.31;10427995;28;1962;-73
2023/05/10 10:50:38;;;;;;;;;;;;;;;19.57;100.00;95211.47;10432663;28;1890;-74
2023/05/10 10:55:41;;;;;;;;;;;;;;;18.83;100.00;95210.72;10428766;28;2068;-74
2023/05/10 11:00:45;;;;;;;;;;;;;;;17.70;100.00;95230.88;10430983;28;1834;-73
2023/05/10 11:05:47;;;;;;;;;;;;;;;17.81;100.00;95207.63;10421991;28;1914;-75
2023/05/10 11:10:51;;;;;;;;;;;;;;;17.83;100.00;95212.72;10425369;28;1974;-73
2023/05/10 11:15:54;;;;;;;;;;;;;;;17.99;100.00;95213.69;10426987;28;1875;-72
2023/05/10 11:20:57;;;;;;;;;;;;;;;17.97;100.00;95223.31;10428262;28;1762;-72
2023/05/10 11:25:59;;;;;;;;;;;;;;;17.58;100.00;95219.94;10427002;28;1913;-73
2023/05/10 11:31:02;;;;;;;;;;;;;;;17.25;100.00;95222.56;10423629;28;1914;-72
2023/05/10 11:36:04;;;;;;;;;;;;;;;16.61;100.00;95239.78;10429460;28;1991;-72
2023/05/10 11:41:06;;;;;;;;;;;;;;;15.92;100.00;95245.34;10430260;28;1836;-72
2023/05/10 11:46:09;;;;;;;;;;;;;;;14.99;100.00;95260.00;10410991;28;1903;-72
2023/05/10 11:51:11;;;;;;;;;;;;;;;14.55;100.00;95272.53;10423527;28;2062;-72
2023/05/10 11:56:14;;;;;;;;;;;;;;;14.29;100.00;95282.38;10442000;28;4440;-72
2023/05/10 12:01:16;;;;;;;;;;;;;;;14.56;100.00;95284.16;10441995;28;2025;-71
2023/05/10 12:06:19;;;;;;;;;;;;;;;14.44;100.00;95282.00;10446431;28;2068;-73
2023/05/10 12:11:21;;;;;;;;;;;;;;;14.22;100.00;95309.06;10441776;28;1909;-73
2023/05/10 12:16:24;;;;;;;;;;;;;;;13.76;100.00;95319.03;10442720;28;1851;-72
2023/05/10 12:21:26;;;;;;;;;;;;;;;13.55;100.00;95330.56;10424582;28;1860;-72
2023/05/10 12:26:28;;;;;;;;;;;;;;;13.35;100.00;95346.09;10425517;28;2210;-75
2023/05/10 12:31:31;;;;;;;;;;;;;;;13.33;100.00;95353.72;10434798;28;1918;-72
2023/05/10 12:36:33;;;;;;;;;;;;;;;13.22;100.00;95379.28;10433444;28;1878;-72
2023/05/10 12:41:36;;;;;;;;;;;;;;;13.21;100.00;95377.69;10429707;28;1886;-71
2023/05/10 12:46:38;;;;;;;;;;;;;;;13.24;100.00;95379.81;10446090;28;2258;-70
2023/05/10 12:51:43;;;;;;;;;;;;;;;13.10;100.00;95376.25;10447167;28;1971;-72
2023/05/10 12:56:46;;;;;;;;;;;;;;;13.06;100.00;95377.97;10448820;28;4542;-70
2023/05/10 13:01:48;;;;;;;;;;;;;;;12.91;100.00;95379.81;10444316;28;1803;-72
2023/05/10 13:06:50;;;;;;;;;;;;;;;12.70;100.00;95384.78;10448764;28;1913;-72
2023/05/10 13:11:54;;;;;;;;;;;;;;;12.96;100.00;95398.63;10445222;28;1980;-72
2023/05/10 13:16:56;;;;;;;;;;;;;;;13.05;100.00;95384.47;10447193;28;1839;-71
2023/05/10 13:21:58;;;;;;;;;;;;;;;12.96;100.00;95387.03;10446984;28;1867;-72
2023/05/10 13:27:01;;;;;;;;;;;;;;;13.02;100.00;95393.16;10437701;28;1858;-71
2023/05/10 13:32:03;;;;;;;;;;;;;;;12.95;100.00;95386.25;10434345;28;1918;-70
2023/05/10 13:37:05;;;;;;;;;;;;;;;12.98;100.00;95385.66;10435226;28;1707;-74
2023/05/10 13:42:08;;;;;;;;;;;;;;;13.24;100.00;95396.81;10435965;28;2092;-75
2023/05/10 13:47:11;;;;;;;;;;;;;;;13.09;100.00;95391.66;10430168;28;1910;-72
2023/05/10 13:52:13;;;;;;;;;;;;;;;13.20;100.00;95389.56;10431020;28;1901;-72
2023/05/10 13:57:16;;;;;;;;;;;;;;;13.33;100.00;95396.09;10440288;28;1888;-72
2023/05/10 14:02:18;;;;;;;;;;;;;;;13.51;100.00;95390.59;10436887;28;1858;-71
2023/05/10 14:07:21;;;;;;;;;;;;;;;13.33;100.00;95380.69;10437232;28;1956;-73
2023/05/10 14:12:23;;;;;;;;;;;;;;;13.52;100.00;95384.09;10426805;28;1828;-70
2023/05/10 14:17:26;;;;;;;;;;;;;;;13.42;100.00;95384.31;10446396;28;1890;-70
2023/05/10 14:22:28;;;;;;;;;;;;;;;13.35;100.00;95380.38;10444998;28;1912;-76
2023/05/10 14:27:31;;;;;;;;;;;;;;;13.25;100.00;95376.00;10447142;28;1953;-72
2023/05/10 14:32:33;;;;;;;;;;;;;;;13.23;100.00;95383.59;10429922;28;2001;-71
2023/05/10 14:37:36;;;;;;;;;;;;;;;12.78;100.00;95386.00;10425954;28;1929;-72
2023/05/10 14:42:39;;;;;;;;;;;;;;;12.59;100.00;95398.72;10447051;28;1759;-75
2023/05/10 14:47:41;;;;;;;;;;;;;;;12.33;100.00;95392.94;10455516;28;1952;-73
2023/05/10 14:57:50;;;;;;;;;;;;;;;12.07;100.00;95397.94;10451345;28;4588;-71
2023/05/10 15:02:52;;;;;;;;;;;;;;;12.17;100.00;95403.19;10450611;28;1843;-72
2023/05/10 15:07:55;;;;;;;;;;;;;;;12.04;100.00;95404.72;10448688;28;2057;-72
2023/05/10 15:12:58;;;;;;;;;;;;;;;12.04;100.00;95414.69;10457023;28;1874;-73
2023/05/10 15:18:00;;;;;;;;;;;;;;;12.04;100.00;95414.69;10454138;28;1943;-73
2023/05/10 15:23:02;;;;;;;;;;;;;;;11.97;100.00;95420.44;10449124;28;1972;-75
2023/05/10 15:28:05;;;;;;;;;;;;;;;11.83;100.00;95423.06;10448555;28;1958;-73
2023/05/10 15:33:08;;;;;;;;;;;;;;;12.07;100.00;95422.19;10445090;28;2135;-74
2023/05/10 15:38:11;;;;;;;;;;;;;;;12.04;100.00;95425.47;10446885;28;2110;-73
2023/05/10 15:43:14;;;;;;;;;;;;;;;11.86;100.00;95435.13;10449315;28;1886;-74
2023/05/10 15:48:16;;;;;;;;;;;;;;;11.83;100.00;95433.00;10450029;28;1971;-74
2023/05/10 15:53:19;;;;;;;;;;;;;;;11.73;100.00;95442.00;10444977;28;1836;-74
2023/05/10 15:58:22;;;;;;;;;;;;;;;11.67;100.00;95448.53;10444747;28;4415;-74
2023/05/10 16:03:27;;;;;;;;;;;;;;;11.64;100.00;95449.91;10443212;28;1835;-73
2023/05/10 16:08:32;;;;;;;;;;;;;;;11.40;100.00;95453.72;10448359;28;1938;-73
2023/05/10 16:13:35;;;;;;;;;;;;;;;11.34;100.00;95452.97;10451456;28;1791;-75
2023/05/10 16:18:38;;;;;;;;;;;;;;;11.24;100.00;95456.53;10452847;28;1873;-73
2023/05/10 16:23:42;;;;;;;;;;;;;;;10.98;100.00;95455.19;10449729;28;1984;-74
2023/05/10 16:28:44;;;;;;;;;;;;;;;11.08;100.00;95455.13;10451079;28;1910;-72
2023/05/10 16:33:47;;;;;;;;;;;;;;;10.95;100.00;95464.66;10456895;28;2017;-73
2023/05/10 16:38:50;;;;;;;;;;;;;;;10.91;100.00;95471.66;10450227;28;1933;-73
2023/05/10 16:43:52;;;;;;;;;;;;;;;10.89;100.00;95470.34;10448500;28;1839;-71
2023/05/10 16:48:54;;;;;;;;;;;;;;;10.81;100.00;95480.63;10441403;28;1927;-73
2023/05/10 16:54:00;;;;;;;;;;;;;;;10.73;100.00;95480.41;10440744;28;1792;-72
2023/05/10 16:59:02;;;;;;;;;;;;;;;10.65;100.00;95484.53;10451526;28;4474;-73
2023/05/10 17:04:05;;;;;;;;;;;;;;;10.50;100.00;95488.13;10443977;28;2274;-72
2023/05/10 17:09:08;;;;;;;;;;;;;;;10.47;100.00;95493.25;10439267;28;1907;-74
2023/05/10 17:14:12;;;;;;;;;;;;;;;10.28;100.00;95499.28;10445246;28;1890;-75
2023/05/10 17:19:14;;;;;;;;;;;;;;;10.21;100.00;95509.50;10428937;28;1916;-76
2023/05/10 17:24:17;;;;;;;;;;;;;;;10.20;100.00;95517.84;10441339;28;1878;-76
2023/05/10 17:29:20;;;;;;;;;;;;;;;9.92;100.00;95517.41;10444409;28;2121;-77
2023/05/10 17:34:22;;;;;;;;;;;;;;;9.83;100.00;95515.59;10441587;28;1835;-77
2023/05/10 17:39:25;;;;;;;;;;;;;;;9.80;100.00;95521.50;10433657;28;2017;-75
2023/05/10 17:44:28;;;;;;;;;;;;;;;9.81;100.00;95523.94;10440512;28;2203;-78
2023/05/10 17:49:30;;;;;;;;;;;;;;;9.74;100.00;95531.47;10439280;28;1984;-77
2023/05/10 17:54:34;;;;;;;;;;;;;;;9.78;100.00;95526.34;10430999;28;2116;-75
2023/05/10 17:59:36;;;;;;;;;;;;;;;9.80;100.00;95530.38;10442674;28;4441;-75
2023/05/10 18:04:39;;;;;;;;;;;;;;;9.70;100.00;95527.72;10449044;28;1974;-76
2023/05/10 18:09:41;;;;;;;;;;;;;;;9.72;100.00;95529.03;10434751;28;2306;-75
2023/05/10 18:14:44;;;;;;;;;;;;;;;9.70;100.00;95533.88;10440624;28;2001;-76
2023/05/10 18:19:47;;;;;;;;;;;;;;;9.57;100.00;95537.16;10452110;28;2022;-79
2023/05/10 18:24:49;;;;;;;;;;;;;;;9.54;100.00;95537.69;10445247;28;2184;-76
2023/05/10 18:29:52;;;;;;;;;;;;;;;9.53;100.00;95536.06;10454331;28;1909;-74
2023/05/10 18:34:55;;;;;;;;;;;;;;;9.53;100.00;95529.91;10447770;28;1871;-76
2023/05/10 18:39:57;;;;;;;;;;;;;;;9.57;100.00;95534.47;10452378;28;1906;-77
2023/05/10 18:45:00;;;;;;;;;;;;;;;9.58;100.00;95532.59;10455900;28;1898;-76
2023/05/10 18:50:03;;;;;;;;;;;;;;;9.50;100.00;95538.53;10441694;28;1910;-75
2023/05/10 18:55:06;;;;;;;;;;;;;;;9.50;100.00;95536.63;10450273;28;1903;-78
2023/05/10 19:00:09;;;;;;;;;;;;;;;9.51;100.00;95534.75;10446190;28;4477;-75
2023/05/10 19:05:11;;;;;;;;;;;;;;;9.46;100.00;95543.63;10448659;28;1886;-75
2023/05/10 19:10:14;;;;;;;;;;;;;;;9.40;100.00;95547.38;10444767;28;1962;-75
2023/05/10 19:15:16;;;;;;;;;;;;;;;9.39;100.00;95551.16;10428774;28;1945;-74
2023/05/10 19:20:22;;;;;;;;;;;;;;;9.36;100.00;95557.06;10455886;28;2383;-76
2023/05/10 19:25:28;;;;;;;;;;;;;;;9.30;100.00;95553.59;10444268;28;1847;-77
2023/05/10 19:30:31;;;;;;;;;;;;;;;9.34;100.00;95556.50;10438608;28;1997;-77
2023/05/10 19:35:33;;;;;;;;;;;;;;;9.26;100.00;95565.91;10448809;28;1783;-78
2023/05/10 19:40:36;;;;;;;;;;;;;;;9.24;100.00;95564.59;10444926;28;1898;-76
2023/05/10 19:45:39;;;;;;;;;;;;;;;9.29;100.00;95561.88;10447928;28;1858;-76
2023/05/10 19:50:41;;;;;;;;;;;;;;;9.30;100.00;95558.94;10446920;28;1975;-78
2023/05/10 19:55:44;;;;;;;;;;;;;;;9.27;100.00;95561.34;10447395;28;4591;-77
2023/05/10 20:00:47;;;;;;;;;;;;;;;9.15;100.00;95562.44;10454118;28;1887;-77
2023/05/10 20:05:50;;;;;;;;;;;;;;;9.21;100.00;95555.97;10436184;28;1815;-77
2023/05/10 20:10:52;;;;;;;;;;;;;;;9.20;100.00;95561.63;10441530;28;1910;-77
2023/05/10 20:15:54;;;;;;;;;;;;;;;9.16;100.00;95568.59;10445831;28;2097;-75
2023/05/10 20:20:57;;;;;;;;;;;;;;;9.17;100.00;95571.03;10447056;28;2045;-76
2023/05/10 20:25:59;;;;;;;;;;;;;;;9.23;100.00;95568.34;10444302;28;1892;-77
2023/05/10 20:31:02;;;;;;;;;;;;;;;9.28;100.00;95565.63;10437303;28;1983;-75
2023/05/10 20:36:04;;;;;;;;;;;;;;;9.25;100.00;95564.31;10446808;28;1930;-75
2023/05/10 20:41:06;;;;;;;;;;;;;;;9.28;100.00;95568.31;10438334;28;1911;-75
2023/05/10 20:46:09;;;;;;;;;;;;;;;9.32;100.00;95566.72;10441211;28;1874;-75
2023/05/10 20:51:11;;;;;;;;;;;;;;;9.30;100.00;95558.13;10451571;28;1946;-76
2023/05/10 20:56:14;;;;;;;;;;;;;;;9.30;100.00;95558.94;10443236;28;4340;-76
2023/05/10 21:01:16;;;;;;;;;;;;;;;9.29;100.00;95553.81;10452227;28;1913;-77
2023/05/10 21:06:19;;;;;;;;;;;;;;;9.25;100.00;95550.91;10452862;28;1910;-77
2023/05/10 21:11:21;;;;;;;;;;;;;;;9.24;100.00;95543.94;10449257;28;2170;-74
2023/05/10 21:16:24;;;;;;;;;;;;;;;9.25;100.00;95544.72;10447751;28;1886;-72
2023/05/10 21:21:26;;;;;;;;;;;;;;;9.18;100.00;95539.66;10446778;28;1891;-73
2023/05/10 21:26:28;;;;;;;;;;;;;;;9.08;100.00;95534.28;10458959;28;1907;-73
2023/05/10 21:31:31;;;;;;;;;;;;;;;9.06;100.00;95531.06;10444190;28;1915;-72
2023/05/10 21:36:33;;;;;;;;;;;;;;;8.97;100.00;95538.88;10454244;28;1925;-73
2023/05/10 21:41:36;;;;;;;;;;;;;;;8.96;100.00;95531.06;10451123;28;1879;-73
2023/05/10 21:46:38;;;;;;;;;;;;;;;8.96;100.00;95521.16;10450916;28;1939;-73
2023/05/10 21:51:40;;;;;;;;;;;;;;;8.96;100.00;95521.16;10428848;28;1951;-73
2023/05/10 21:56:43;;;;;;;;;;;;;;;8.90;100.00;95531.06;10438883;28;4507;-72
2023/05/10 22:01:46;;;;;;;;;;;;;;;8.93;100.00;95524.38;10436717;28;2071;-73
2023/05/10 22:06:48;;;;;;;;;;;;;;;8.93;100.00;95521.69;10439647;28;2069;-73
2023/05/10 22:11:51;;;;;;;;;;;;;;;8.89;100.00;95518.75;10435758;28;1914;-73
2023/05/10 22:16:53;;;;;;;;;;;;;;;8.79;100.00;95518.75;10438978;28;1874;-72
2023/05/10 22:21:56;;;;;;;;;;;;;;;8.84;100.00;95523.28;10440750;28;1969;-73
2023/05/10 22:26:58;;;;;;;;;;;;;;;8.82;100.00;95531.59;10440016;28;1895;-72
2023/05/10 22:32:04;;;;;;;;;;;;;;;8.77;100.00;95528.13;10441991;28;1980;-73
2023/05/10 22:37:06;;;;;;;;;;;;;;;8.75;100.00;95525.72;10438882;28;1776;-72
2023/05/10 22:42:09;;;;;;;;;;;;;;;8.75;100.00;95522.22;10438990;28;1871;-71
2023/05/10 22:47:11;;;;;;;;;;;;;;;8.77;100.00;95522.75;10438607;28;1901;-73
2023/05/10 22:52:13;;;;;;;;;;;;;;;8.73;100.00;95516.34;10437355;28;1979;-73
2023/05/10 22:57:16;;;;;;;;;;;;;;;8.66;100.00;95509.38;10443366;28;1804;-72
2023/05/10 23:02:18;;;;;;;;;;;;;;;8.60;100.00;95515.00;10437240;28;1839;-72
2023/05/10 23:07:21;;;;;;;;;;;;;;;8.60;100.00;95518.47;10442178;28;1963;-72
2023/05/10 23:12:24;;;;;;;;;;;;;;;8.56;100.00;95509.38;10432938;28;1910;-73
2023/05/10 23:17:26;;;;;;;;;;;;;;;8.53;100.00;95517.94;10442409;28;1827;-72
2023/05/10 23:22:28;;;;;;;;;;;;;;;8.46;100.00;95521.94;10444734;28;1897;-72
2023/05/10 23:27:31;;;;;;;;;;;;;;;8.40;100.00;95518.47;10448627;28;1835;-73
2023/05/10 23:32:33;;;;;;;;;;;;;;;8.42;100.00;95519.00;10444983;28;1911;-73
2023/05/10 23:37:35;;;;;;;;;;;;;;;8.46;100.00;95527.28;10444058;28;1979;-72
2023/05/10 23:42:38;;;;;;;;;;;;;;;8.43;100.00;95527.84;10442220;28;1827;-72
2023/05/10 23:47:40;;;;;;;;;;;;;;;8.41;100.00;95528.09;10446285;28;1891;-75
2023/05/10 23:52:43;;;;;;;;;;;;;;;8.37;100.00;95521.66;10445442;28;1910;-72
2023/05/10 23:57:45;;;;;;;;;;;;;;;8.44;100.00;95516.84;10448101;28;5009;-73
